createdAt,value
2017-11-23T00:01:58.327Z,71.61
2017-11-23T00:04:25.717Z,72.47
2017-11-23T00:06:53.116Z,72.46
2017-11-23T00:09:20.500Z,72.47
2017-11-23T00:11:48.273Z,71.97
2017-11-23T00:14:15.669Z,71.62
2017-11-23T00:16:43.051Z,71.36
2017-11-23T00:19:10.446Z,71.77
2017-11-23T00:21:37.839Z,71.32
2017-11-23T00:24:05.223Z,71.43
2017-11-23T00:26:32.614Z,71.31
2017-11-23T00:29:00.012Z,71.78
2017-11-23T00:31:27.396Z,71.00
2017-11-23T00:33:54.798Z,71.29
2017-11-23T00:36:22.195Z,71.17
2017-11-23T00:38:49.587Z,70.36
2017-11-23T00:41:16.974Z,70.62
2017-11-23T00:43:44.396Z,70.21
2017-11-23T00:46:11.788Z,70.41
2017-11-23T00:48:39.185Z,70.29
2017-11-23T00:51:06.599Z,69.99
2017-11-23T00:53:33.991Z,70.71
2017-11-23T00:56:01.379Z,71.04
2017-11-23T00:58:28.782Z,71.04
2017-11-23T01:00:56.170Z,70.25
2017-11-23T01:03:23.584Z,71.00
2017-11-23T01:05:50.968Z,70.91
2017-11-23T01:08:18.354Z,71.17
2017-11-23T01:10:45.747Z,71.08
2017-11-23T01:13:13.148Z,70.85
2017-11-23T01:15:40.539Z,70.68
2017-11-23T01:18:07.938Z,70.57
2017-11-23T01:20:35.373Z,71.55
2017-11-23T01:23:02.740Z,71.89
2017-11-23T01:25:30.135Z,71.31
2017-11-23T01:27:57.553Z,71.25
2017-11-23T01:30:24.936Z,71.23
2017-11-23T01:32:52.323Z,71.86
2017-11-23T01:35:19.727Z,70.35
2017-11-23T01:37:47.115Z,70.11
2017-11-23T01:40:14.512Z,71.06
2017-11-23T01:42:41.915Z,71.02
2017-11-23T01:45:09.313Z,71.19
2017-11-23T01:47:36.720Z,70.73
2017-11-23T01:50:04.122Z,69.75
2017-11-23T01:52:31.532Z,71.02
2017-11-23T01:54:58.917Z,70.97
2017-11-23T01:57:26.338Z,71.18
2017-11-23T01:59:53.737Z,71.24
2017-11-23T02:02:21.131Z,70.88
2017-11-23T02:04:48.547Z,70.54
2017-11-23T02:07:15.935Z,70.81
2017-11-23T02:09:43.326Z,70.32
2017-11-23T02:12:10.728Z,70.96
2017-11-23T02:14:38.115Z,71.12
2017-11-23T02:17:05.508Z,70.78
2017-11-23T02:19:32.911Z,70.52
2017-11-23T02:22:00.294Z,70.48
2017-11-23T02:24:27.694Z,71.27
2017-11-23T02:26:55.096Z,70.99
2017-11-23T02:29:22.479Z,70.20
2017-11-23T02:31:49.867Z,69.56
2017-11-23T02:34:17.279Z,69.78
2017-11-23T02:36:44.671Z,70.10
2017-11-23T02:39:12.072Z,69.56
2017-11-23T02:41:39.524Z,68.75
2017-11-23T02:44:06.899Z,68.99
2017-11-23T02:46:34.287Z,69.18
2017-11-23T02:49:01.687Z,68.76
2017-11-23T02:51:29.093Z,68.91
2017-11-23T02:53:56.487Z,67.74
2017-11-23T02:56:23.888Z,68.63
2017-11-23T02:58:51.279Z,68.66
2017-11-23T03:01:18.668Z,68.62
2017-11-23T03:03:46.072Z,68.28
2017-11-23T03:06:13.463Z,67.84
2017-11-23T03:08:40.852Z,67.80
2017-11-23T03:11:08.261Z,67.87
2017-11-23T03:13:35.935Z,67.58
2017-11-23T03:16:03.352Z,68.20
2017-11-23T03:18:30.759Z,67.17
2017-11-23T03:20:58.147Z,67.92
2017-11-23T03:23:25.542Z,68.05
2017-11-23T03:25:52.964Z,67.70
2017-11-23T03:28:20.387Z,68.25
2017-11-23T03:30:47.773Z,68.48
2017-11-23T03:33:15.187Z,67.80
2017-11-23T03:35:42.580Z,68.91
2017-11-23T03:38:09.979Z,68.69
2017-11-23T03:40:37.411Z,69.34
2017-11-23T03:43:04.840Z,68.46
2017-11-23T03:45:32.229Z,68.30
2017-11-23T03:47:59.647Z,68.71
2017-11-23T03:50:27.052Z,68.93
2017-11-23T03:52:54.439Z,68.87
2017-11-23T03:55:21.871Z,69.29
2017-11-23T03:57:49.264Z,69.74
2017-11-23T04:00:16.657Z,69.56
2017-11-23T04:02:44.060Z,69.40
2017-11-23T04:05:11.443Z,70.11
2017-11-23T04:07:38.841Z,69.84
2017-11-23T04:10:06.251Z,69.73
2017-11-23T04:12:33.661Z,70.10
2017-11-23T04:15:01.040Z,70.08
2017-11-23T04:17:28.463Z,69.93
2017-11-23T04:19:55.848Z,70.63
2017-11-23T04:22:23.241Z,70.13
2017-11-23T04:24:50.652Z,70.41
2017-11-23T04:27:18.035Z,70.78
2017-11-23T04:29:45.424Z,70.85
2017-11-23T04:32:12.823Z,70.29
2017-11-23T04:34:40.211Z,70.62
2017-11-23T04:37:07.607Z,71.28
2017-11-23T04:39:35.009Z,71.50
2017-11-23T04:42:02.401Z,71.40
2017-11-23T04:44:29.796Z,70.82
2017-11-23T04:46:57.204Z,70.62
2017-11-23T04:49:24.593Z,70.68
2017-11-23T04:51:51.986Z,70.01
2017-11-23T04:54:19.383Z,70.28
2017-11-23T04:56:46.774Z,70.67
2017-11-23T04:59:14.156Z,70.42
2017-11-23T05:01:41.560Z,69.77
2017-11-23T05:04:08.956Z,69.73
2017-11-23T05:06:36.340Z,69.97
2017-11-23T05:09:03.734Z,69.30
2017-11-23T05:11:31.127Z,69.86
2017-11-23T05:13:58.519Z,69.98
2017-11-23T05:16:25.957Z,69.84
2017-11-23T05:18:53.339Z,69.29
2017-11-23T05:21:20.733Z,69.65
2017-11-23T05:23:48.134Z,69.68
2017-11-23T05:26:15.532Z,69.55
2017-11-23T05:28:42.919Z,69.19
2017-11-23T05:31:10.320Z,69.36
2017-11-23T05:33:37.717Z,68.90
2017-11-23T05:36:05.113Z,69.18
2017-11-23T05:38:32.521Z,69.11
2017-11-23T05:40:59.909Z,69.69
2017-11-23T05:43:27.305Z,69.12
2017-11-23T05:45:54.714Z,68.91
2017-11-23T05:48:22.165Z,69.82
2017-11-23T05:50:49.564Z,69.34
2017-11-23T05:53:16.978Z,69.75
2017-11-23T05:55:44.382Z,69.90
2017-11-23T05:58:11.775Z,69.66
2017-11-23T06:00:40.378Z,70.17
2017-11-23T06:03:07.780Z,70.11
2017-11-23T06:05:35.176Z,69.68
2017-11-23T06:08:02.596Z,70.16
2017-11-23T06:10:29.988Z,69.96
2017-11-23T06:12:57.384Z,70.23
2017-11-23T06:15:24.792Z,69.99
2017-11-23T06:17:52.179Z,68.91
2017-11-23T06:20:19.578Z,69.05
2017-11-23T06:22:46.997Z,67.98
2017-11-23T06:25:14.377Z,68.92
2017-11-23T06:27:41.764Z,68.04
2017-11-23T06:30:09.168Z,68.34
2017-11-23T06:32:36.556Z,68.32
2017-11-23T06:35:03.952Z,68.03
2017-11-23T06:37:31.348Z,68.16
2017-11-23T06:39:58.735Z,68.48
2017-11-23T06:42:26.134Z,67.68
2017-11-23T06:44:53.539Z,67.68
2017-11-23T06:47:20.919Z,67.72
2017-11-23T06:49:48.316Z,67.39
2017-11-23T06:52:15.742Z,67.10
2017-11-23T06:54:43.141Z,66.48
2017-11-23T06:57:10.538Z,66.80
2017-11-23T06:59:37.933Z,66.78
2017-11-23T07:02:06.031Z,67.14
2017-11-23T07:04:33.428Z,66.92
2017-11-23T07:07:00.925Z,66.08
2017-11-23T07:09:28.331Z,66.03
2017-11-23T07:11:55.735Z,66.65
2017-11-23T07:14:23.140Z,66.39
2017-11-23T07:16:50.536Z,66.64
2017-11-23T07:19:17.921Z,66.62
2017-11-23T07:21:45.324Z,66.01
2017-11-23T07:24:12.722Z,67.30
2017-11-23T07:26:40.127Z,66.99
2017-11-23T07:29:07.527Z,67.06
2017-11-23T07:31:34.915Z,66.57
2017-11-23T07:34:02.307Z,67.08
2017-11-23T07:36:29.707Z,67.50
2017-11-23T07:38:57.099Z,66.93
2017-11-23T07:41:24.492Z,67.66
2017-11-23T07:43:52.614Z,67.46
2017-11-23T07:46:19.999Z,67.23
2017-11-23T07:48:47.460Z,67.06
2017-11-23T07:51:14.880Z,67.60
2017-11-23T07:53:48.083Z,66.93
2017-11-23T07:56:15.483Z,67.17
2017-11-23T07:58:42.929Z,67.75
2017-11-23T08:01:10.319Z,67.07
2017-11-23T08:03:37.723Z,66.77
2017-11-23T08:06:05.118Z,67.47
2017-11-23T08:08:33.107Z,67.19
2017-11-23T08:11:00.517Z,67.14
2017-11-23T08:13:28.244Z,67.61
2017-11-23T08:15:55.688Z,67.92
2017-11-23T08:18:23.372Z,68.28
2017-11-23T08:20:50.779Z,67.99
2017-11-23T08:23:18.192Z,68.53
2017-11-23T08:25:45.647Z,68.64
2017-11-23T08:28:13.047Z,69.10
2017-11-23T08:30:40.440Z,69.33
2017-11-23T08:33:07.896Z,68.92
2017-11-23T08:35:35.311Z,68.94
2017-11-23T08:38:02.711Z,68.73
2017-11-23T08:40:30.251Z,69.79
2017-11-23T08:42:57.659Z,68.95
2017-11-23T08:45:25.063Z,69.36
2017-11-23T08:47:52.472Z,67.28
2017-11-23T08:50:19.864Z,68.20
2017-11-23T08:52:48.316Z,67.47
2017-11-23T08:55:15.716Z,66.81
2017-11-23T08:57:43.156Z,67.12
2017-11-23T09:00:10.545Z,66.38
2017-11-23T09:02:37.959Z,67.16
2017-11-23T09:05:06.271Z,67.12
2017-11-23T09:07:33.665Z,66.82
2017-11-23T09:10:02.349Z,66.70
2017-11-23T09:12:30.653Z,67.55
2017-11-23T09:14:58.840Z,67.09
2017-11-23T09:17:26.255Z,67.72
2017-11-23T09:19:53.641Z,66.40
2017-11-23T09:22:21.040Z,66.08
2017-11-23T09:24:48.451Z,66.84
2017-11-23T09:27:15.842Z,66.75
2017-11-23T09:29:43.223Z,66.95
2017-11-23T09:32:10.632Z,65.23
2017-11-23T09:34:38.017Z,65.43
2017-11-23T09:37:05.395Z,64.06
2017-11-23T09:39:32.884Z,64.52
2017-11-23T09:42:00.271Z,64.12
2017-11-23T09:44:27.654Z,63.52
2017-11-23T09:46:55.053Z,62.90
2017-11-23T09:49:22.449Z,62.80
2017-11-23T09:51:49.827Z,62.55
2017-11-23T09:54:17.235Z,62.27
2017-11-23T09:56:44.623Z,62.23
2017-11-23T09:59:12.005Z,61.32
2017-11-23T10:01:39.420Z,62.73
2017-11-23T10:04:06.807Z,61.45
2017-11-23T10:06:34.189Z,62.66
2017-11-23T10:09:01.597Z,62.01
2017-11-23T10:11:28.980Z,62.04
2017-11-23T10:13:56.367Z,61.27
2017-11-23T10:16:23.759Z,62.00
2017-11-23T10:18:51.146Z,61.77
2017-11-23T10:21:18.632Z,61.41
2017-11-23T10:23:46.024Z,61.45
2017-11-23T10:26:13.405Z,62.92
2017-11-23T10:28:40.819Z,61.92
2017-11-23T10:31:08.228Z,62.11
2017-11-23T10:33:36.801Z,62.87
2017-11-23T10:36:04.167Z,62.86
2017-11-23T10:38:31.647Z,62.17
2017-11-23T10:40:59.027Z,63.45
2017-11-23T10:43:26.415Z,62.38
2017-11-23T10:45:53.829Z,63.48
2017-11-23T10:48:31.319Z,63.83
2017-11-23T10:50:58.721Z,63.37
2017-11-23T10:53:26.378Z,63.57
2017-11-23T10:55:53.755Z,63.49
2017-11-23T10:58:21.168Z,63.29
2017-11-23T11:00:48.563Z,63.16
2017-11-23T11:03:15.944Z,63.22
2017-11-23T11:05:43.372Z,62.90
2017-11-23T11:08:10.765Z,64.60
2017-11-23T11:10:38.143Z,67.08
2017-11-23T11:13:05.535Z,68.83
2017-11-23T11:15:32.977Z,68.91
2017-11-23T11:18:00.394Z,68.72
2017-11-23T11:20:27.787Z,69.43
2017-11-23T11:22:55.422Z,70.52
2017-11-23T11:25:22.784Z,69.74
2017-11-23T11:27:50.179Z,70.20
2017-11-23T11:30:17.580Z,71.45
2017-11-23T11:32:44.959Z,69.75
2017-11-23T11:35:12.352Z,69.54
2017-11-23T11:37:39.741Z,68.83
2017-11-23T11:40:07.136Z,68.67
2017-11-23T11:42:34.535Z,69.16
2017-11-23T11:45:01.911Z,69.21
2017-11-23T11:47:29.296Z,68.63
2017-11-23T11:49:56.735Z,69.26
2017-11-23T11:52:24.119Z,68.44
2017-11-23T11:54:51.508Z,68.70
2017-11-23T11:57:18.906Z,68.87
2017-11-23T11:59:46.287Z,68.61
2017-11-23T12:02:13.654Z,68.32
2017-11-23T12:04:41.071Z,68.60
2017-11-23T12:07:08.468Z,67.97
2017-11-23T12:09:35.887Z,68.22
2017-11-23T12:12:03.590Z,68.40
2017-11-23T12:14:30.987Z,68.45
2017-11-23T12:20:08.797Z,67.93
2017-11-23T12:22:43.060Z,69.32
2017-11-23T12:25:10.457Z,68.13
2017-11-23T12:27:50.307Z,68.66
2017-11-23T12:30:17.704Z,68.12
2017-11-23T12:32:45.123Z,68.21
2017-11-23T12:35:12.591Z,68.34
2017-11-23T12:37:39.983Z,68.41
2017-11-23T12:40:07.392Z,68.34
2017-11-23T12:42:34.889Z,68.77
2017-11-23T12:45:02.273Z,68.28
2017-11-23T12:47:29.673Z,68.29
2017-11-23T12:49:57.058Z,68.33
2017-11-23T12:52:25.023Z,67.77
2017-11-23T12:54:52.426Z,68.12
2017-11-23T12:57:19.837Z,67.99
2017-11-23T12:59:47.211Z,67.28
2017-11-23T13:02:14.609Z,68.11
2017-11-23T13:04:42.041Z,68.00
2017-11-23T13:07:09.473Z,67.22
2017-11-23T13:09:36.884Z,67.29
2017-11-23T13:12:04.332Z,67.94
2017-11-23T13:14:31.729Z,66.83
2017-11-23T13:16:59.107Z,64.21
2017-11-23T13:19:26.519Z,63.19
2017-11-23T13:21:53.899Z,63.02
2017-11-23T13:24:21.321Z,62.70
2017-11-23T13:26:48.776Z,62.99
2017-11-23T13:29:16.307Z,62.94
2017-11-23T13:31:43.717Z,62.88
2017-11-23T13:34:11.112Z,63.32
2017-11-23T13:36:38.500Z,62.93
2017-11-23T13:39:05.920Z,64.08
2017-11-23T13:41:33.502Z,65.16
2017-11-23T13:44:00.874Z,64.71
2017-11-23T13:46:28.880Z,64.62
2017-11-23T13:48:56.268Z,64.98
2017-11-23T13:51:23.661Z,65.44
2017-11-23T13:53:51.064Z,64.85
2017-11-23T13:56:18.492Z,65.41
2017-11-23T13:58:45.875Z,65.40
2017-11-23T14:01:13.288Z,64.79
2017-11-23T14:03:40.781Z,65.14
2017-11-23T14:06:08.160Z,65.80
2017-11-23T14:08:35.628Z,65.81
2017-11-23T14:11:03.036Z,65.15
2017-11-23T14:13:30.449Z,65.61
2017-11-23T14:15:57.851Z,65.54
2017-11-23T14:18:25.273Z,65.60
2017-11-23T14:20:52.638Z,65.83
2017-11-23T14:23:20.034Z,65.58
2017-11-23T14:25:47.414Z,66.08
2017-11-23T14:28:14.855Z,65.97
2017-11-23T14:30:42.228Z,66.28
2017-11-23T14:33:09.629Z,66.42
2017-11-23T14:35:37.028Z,66.25
2017-11-23T14:38:04.428Z,66.04
2017-11-23T14:40:31.881Z,66.51
2017-11-23T14:42:59.302Z,66.28
2017-11-23T14:45:26.704Z,65.93
2017-11-23T14:47:54.107Z,65.71
2017-11-23T14:50:21.517Z,65.98
2017-11-23T14:52:48.931Z,66.07
2017-11-23T14:55:16.329Z,66.63
2017-11-23T14:57:43.727Z,66.63
2017-11-23T15:00:11.151Z,66.64
2017-11-23T15:02:38.567Z,66.89
2017-11-23T15:05:05.956Z,65.99
2017-11-23T15:07:33.344Z,66.88
2017-11-23T15:10:00.743Z,66.86
2017-11-23T15:12:28.168Z,67.21
2017-11-23T15:14:55.571Z,66.77
2017-11-23T15:17:23.024Z,66.76
2017-11-23T15:19:50.411Z,66.96
2017-11-23T15:22:17.805Z,66.81
2017-11-23T15:24:45.241Z,67.64
2017-11-23T15:27:12.622Z,67.41
2017-11-23T15:29:40.745Z,67.57
2017-11-23T15:32:08.184Z,68.09
2017-11-23T15:34:35.608Z,68.79
2017-11-23T15:37:03.651Z,69.34
2017-11-23T15:39:31.096Z,70.06
2017-11-23T15:41:58.480Z,70.12
2017-11-23T15:44:25.872Z,69.82
2017-11-23T15:46:53.720Z,70.60
2017-11-23T15:49:21.147Z,70.00
2017-11-23T15:51:48.540Z,70.70
2017-11-23T15:54:15.973Z,71.37
2017-11-23T15:56:43.468Z,71.49
2017-11-23T15:59:11.662Z,72.58
2017-11-23T16:01:39.063Z,74.10
2017-11-23T16:04:06.460Z,74.51
2017-11-23T16:06:33.862Z,75.54
2017-11-23T16:09:01.864Z,75.69
2017-11-23T16:11:29.257Z,75.91
2017-11-23T16:13:56.632Z,76.14
2017-11-23T16:16:24.028Z,75.94
2017-11-23T16:18:51.431Z,75.68
2017-11-23T16:21:18.811Z,74.13
2017-11-23T16:23:46.252Z,73.73
2017-11-23T16:26:13.658Z,74.15
2017-11-23T16:28:41.043Z,79.42
2017-11-23T16:31:08.475Z,84.66
2017-11-23T16:33:35.896Z,86.89
2017-11-23T16:36:03.275Z,88.20
2017-11-23T16:38:30.691Z,89.24
2017-11-23T16:41:08.656Z,90.14
2017-11-23T16:43:36.107Z,90.11
2017-11-23T16:46:09.017Z,90.48
2017-11-23T16:48:38.354Z,90.72
2017-11-23T16:51:11.291Z,90.65
2017-11-23T16:56:52.569Z,90.80
2017-11-23T16:59:19.979Z,91.24
2017-11-23T17:01:53.016Z,91.25
2017-11-23T17:04:26.024Z,90.98
2017-11-23T17:10:01.509Z,90.68
2017-11-23T17:12:34.567Z,90.84
2017-11-23T17:15:08.524Z,90.59
2017-11-23T17:17:39.392Z,90.30
2017-11-23T17:20:06.771Z,89.61
2017-11-23T17:22:34.187Z,89.56
2017-11-23T17:25:01.585Z,89.45
2017-11-23T17:27:28.970Z,89.77
2017-11-23T17:29:56.414Z,89.76
2017-11-23T17:32:23.802Z,89.71
2017-11-23T17:34:51.933Z,89.34
2017-11-23T17:37:19.348Z,89.02
2017-11-23T17:39:46.736Z,88.52
2017-11-23T17:42:14.170Z,88.40
2017-11-23T17:44:41.591Z,88.42
2017-11-23T17:47:08.984Z,88.35
2017-11-23T17:49:36.378Z,88.61
2017-11-23T17:52:03.785Z,88.60
2017-11-23T17:54:31.255Z,87.77
2017-11-23T17:56:58.672Z,88.25
2017-11-23T17:59:27.008Z,88.15
2017-11-23T18:01:54.388Z,88.22
2017-11-23T18:04:21.780Z,88.62
2017-11-23T18:06:49.175Z,88.04
2017-11-23T18:09:16.562Z,88.06
2017-11-23T18:11:43.999Z,88.34
2017-11-23T18:14:11.406Z,88.25
2017-11-23T18:16:39.156Z,88.62
2017-11-23T18:19:06.608Z,88.59
2017-11-23T18:21:34.005Z,88.82
2017-11-23T18:24:01.404Z,88.24
2017-11-23T18:26:28.788Z,88.50
2017-11-23T18:28:56.184Z,88.67
2017-11-23T18:31:23.588Z,88.65
2017-11-23T18:33:50.986Z,88.92
2017-11-23T18:36:18.411Z,88.82
2017-11-23T18:38:45.799Z,88.71
2017-11-23T18:41:13.221Z,88.86
2017-11-23T18:43:40.624Z,89.00
2017-11-23T18:46:08.027Z,88.87
2017-11-23T18:48:35.421Z,88.77
2017-11-23T18:51:02.851Z,88.03
2017-11-23T18:53:30.264Z,88.06
2017-11-23T18:55:57.639Z,86.80
2017-11-23T18:58:25.068Z,86.15
2017-11-23T19:00:52.459Z,86.14
2017-11-23T19:03:19.923Z,85.21
2017-11-23T19:05:48.328Z,85.56
2017-11-23T19:08:16.463Z,85.12
2017-11-23T19:10:43.843Z,85.21
2017-11-23T19:13:11.268Z,85.52
2017-11-23T19:15:38.671Z,85.38
2017-11-23T19:18:06.203Z,85.43
2017-11-23T19:20:33.610Z,85.69
2017-11-23T19:23:01.008Z,85.49
2017-11-23T19:25:29.132Z,85.75
2017-11-23T19:27:56.535Z,85.40
2017-11-23T19:30:23.935Z,85.11
2017-11-23T19:32:51.333Z,85.23
2017-11-23T19:35:18.744Z,85.80
2017-11-23T19:37:46.147Z,85.89
2017-11-23T19:40:13.540Z,85.40
2017-11-23T19:42:40.935Z,85.48
2017-11-23T19:45:08.335Z,85.71
2017-11-23T19:47:35.727Z,85.62
2017-11-23T19:50:03.138Z,86.01
2017-11-23T19:52:31.534Z,85.53
2017-11-23T19:54:58.927Z,86.31
2017-11-23T19:57:26.332Z,86.71
2017-11-23T19:59:53.722Z,86.06
2017-11-23T20:02:21.123Z,85.58
2017-11-23T20:04:48.529Z,85.12
2017-11-23T20:07:15.930Z,84.78
2017-11-23T20:09:43.319Z,85.01
2017-11-23T20:12:10.723Z,85.43
2017-11-23T20:14:38.120Z,85.70
2017-11-23T20:17:05.912Z,86.02
2017-11-23T20:19:33.319Z,86.30
2017-11-23T20:22:00.708Z,86.51
2017-11-23T20:24:28.112Z,86.60
2017-11-23T20:26:55.519Z,86.76
2017-11-23T20:29:22.916Z,86.89
2017-11-23T20:31:50.317Z,86.96
2017-11-23T20:34:17.710Z,87.19
2017-11-23T20:36:45.097Z,87.42
2017-11-23T20:39:12.493Z,86.72
2017-11-23T20:41:39.910Z,87.11
2017-11-23T20:44:07.307Z,87.57
2017-11-23T20:46:34.705Z,87.76
2017-11-23T20:49:02.128Z,87.75
2017-11-23T20:51:29.551Z,88.12
2017-11-23T20:53:56.941Z,88.29
2017-11-23T20:56:24.440Z,87.91
2017-11-23T20:58:51.843Z,88.12
2017-11-23T21:01:19.224Z,88.22
2017-11-23T21:03:46.651Z,88.48
2017-11-23T21:06:14.055Z,88.61
2017-11-23T21:08:41.447Z,88.66
2017-11-23T21:11:08.894Z,88.73
2017-11-23T21:13:36.288Z,88.68
2017-11-23T21:16:03.676Z,88.54
2017-11-23T21:18:31.105Z,88.35
2017-11-23T21:20:58.587Z,88.64
2017-11-23T21:23:25.992Z,88.77
2017-11-23T21:25:53.400Z,88.87
2017-11-23T21:28:20.795Z,88.97
2017-11-23T21:30:48.202Z,88.98
2017-11-23T21:33:15.623Z,89.15
2017-11-23T21:35:43.108Z,89.39
2017-11-23T21:38:10.516Z,89.54
2017-11-23T21:40:37.931Z,89.65
2017-11-23T21:43:05.347Z,89.59
2017-11-23T21:45:32.740Z,89.71
2017-11-23T21:48:00.135Z,89.35
2017-11-23T21:50:27.540Z,89.55
2017-11-23T21:52:54.930Z,89.81
2017-11-23T21:55:22.331Z,89.78
2017-11-23T21:57:49.723Z,89.72
2017-11-23T22:00:17.116Z,89.86
2017-11-23T22:02:44.514Z,89.91
2017-11-23T22:05:11.903Z,89.80
2017-11-23T22:07:39.299Z,89.72
2017-11-23T22:10:06.708Z,89.71
2017-11-23T22:12:34.093Z,89.79
2017-11-23T22:15:01.484Z,89.76
2017-11-23T22:17:28.899Z,89.70
2017-11-23T22:19:56.294Z,89.63
2017-11-23T22:22:23.684Z,89.70
2017-11-23T22:24:51.103Z,89.77
2017-11-23T22:27:18.501Z,89.81
2017-11-23T22:29:45.900Z,89.86
2017-11-23T22:32:13.287Z,89.91
2017-11-23T22:34:40.687Z,89.86
2017-11-23T22:37:08.087Z,89.70
2017-11-23T22:39:35.481Z,89.75
2017-11-23T22:42:02.874Z,89.38
2017-11-23T22:44:30.287Z,89.21
2017-11-23T22:46:57.696Z,89.33
2017-11-23T22:49:25.084Z,89.29
2017-11-23T22:51:52.485Z,88.75
2017-11-23T22:54:19.887Z,88.76
2017-11-23T22:56:47.279Z,88.43
2017-11-23T22:59:14.675Z,88.47
2017-11-23T23:01:42.078Z,88.54
2017-11-23T23:04:09.463Z,88.64
2017-11-23T23:06:36.856Z,88.49
2017-11-23T23:09:04.260Z,88.40
2017-11-23T23:11:31.653Z,88.14
2017-11-23T23:13:59.105Z,87.86
2017-11-23T23:16:26.534Z,87.85
2017-11-23T23:18:54.014Z,87.82
2017-11-23T23:21:21.397Z,87.81
2017-11-23T23:23:48.812Z,87.63
2017-11-23T23:26:16.211Z,87.57
2017-11-23T23:28:43.613Z,87.65
2017-11-23T23:31:11.007Z,87.76
2017-11-23T23:33:38.428Z,87.79
2017-11-23T23:36:05.819Z,87.57
2017-11-23T23:38:33.223Z,87.52
2017-11-23T23:41:00.616Z,87.56
2017-11-23T23:43:28.033Z,87.22
2017-11-23T23:45:55.452Z,87.40
2017-11-23T23:48:22.847Z,87.55
2017-11-23T23:50:50.259Z,87.60
2017-11-23T23:53:17.654Z,87.61
2017-11-23T23:55:45.059Z,87.73
2017-11-23T23:58:12.455Z,87.85
